createdAt,value
2018-12-05T00:02:20.878Z,54.58
2018-12-05T00:04:46.850Z,54.80
2018-12-05T00:07:12.769Z,54.17
2018-12-05T00:09:38.730Z,55.03
2018-12-05T00:12:04.704Z,54.80
2018-12-05T00:14:30.723Z,53.98
2018-12-05T00:16:56.707Z,54.75
2018-12-05T00:19:22.718Z,54.15
2018-12-05T00:21:48.705Z,54.47
2018-12-05T00:24:14.683Z,54.13
2018-12-05T00:26:40.661Z,54.88
2018-12-05T00:29:06.616Z,53.89
2018-12-05T00:31:32.573Z,54.54
2018-12-05T00:33:58.602Z,54.75
2018-12-05T00:36:24.551Z,54.35
2018-12-05T00:38:50.503Z,54.07
2018-12-05T00:41:16.466Z,53.85
2018-12-05T00:43:42.479Z,54.57
2018-12-05T00:46:08.529Z,54.34
2018-12-05T00:48:34.525Z,54.77
2018-12-05T00:51:00.542Z,53.81
2018-12-05T00:53:26.503Z,54.02
2018-12-05T00:55:52.461Z,54.39
2018-12-05T00:58:18.431Z,53.92
2018-12-05T01:00:44.407Z,54.93
2018-12-05T01:03:10.358Z,54.12
2018-12-05T01:05:36.370Z,54.36
2018-12-05T01:08:02.325Z,54.33
2018-12-05T01:10:28.310Z,54.13
2018-12-05T01:12:54.367Z,54.55
2018-12-05T01:15:20.449Z,54.28
2018-12-05T01:17:46.547Z,53.43
2018-12-05T01:20:12.499Z,54.28
2018-12-05T01:22:38.446Z,54.42
2018-12-05T01:25:04.436Z,53.91
2018-12-05T01:27:30.399Z,53.30
2018-12-05T01:29:56.459Z,53.73
2018-12-05T01:32:22.778Z,54.01
2018-12-05T01:34:48.733Z,53.98
2018-12-05T01:37:14.748Z,54.24
2018-12-05T01:39:40.693Z,53.65
2018-12-05T01:42:06.718Z,53.82
2018-12-05T01:44:32.661Z,53.19
2018-12-05T01:46:58.626Z,53.79
2018-12-05T01:49:24.586Z,54.24
2018-12-05T01:51:50.559Z,54.01
2018-12-05T01:54:16.545Z,53.78
2018-12-05T01:56:42.569Z,54.18
2018-12-05T01:59:08.522Z,54.56
2018-12-05T02:01:34.483Z,53.34
2018-12-05T02:04:00.612Z,53.66
2018-12-05T02:06:26.566Z,54.17
2018-12-05T02:08:52.526Z,54.23
2018-12-05T02:11:18.482Z,53.31
2018-12-05T02:13:44.511Z,53.82
2018-12-05T02:16:10.462Z,53.54
2018-12-05T02:18:36.525Z,53.64
2018-12-05T02:21:02.476Z,53.74
2018-12-05T02:23:28.431Z,53.02
2018-12-05T02:25:54.417Z,53.65
2018-12-05T02:28:20.381Z,53.45
2018-12-05T02:30:46.345Z,52.83
2018-12-05T02:33:12.301Z,53.02
2018-12-05T02:35:38.291Z,53.29
2018-12-05T02:38:04.244Z,52.96
2018-12-05T02:40:30.192Z,53.61
2018-12-05T02:42:56.154Z,52.69
2018-12-05T02:45:22.107Z,52.69
2018-12-05T02:47:48.077Z,52.64
2018-12-05T02:50:14.040Z,52.88
2018-12-05T02:52:40.090Z,53.45
2018-12-05T02:55:06.133Z,52.92
2018-12-05T02:57:32.110Z,52.81
2018-12-05T02:59:58.099Z,53.51
2018-12-05T03:02:24.137Z,53.32
2018-12-05T03:04:50.237Z,52.71
2018-12-05T03:07:16.210Z,53.52
2018-12-05T03:09:42.181Z,53.00
2018-12-05T03:12:08.227Z,52.54
2018-12-05T03:14:34.189Z,52.47
2018-12-05T03:17:00.143Z,53.37
2018-12-05T03:19:26.095Z,53.36
2018-12-05T03:21:52.144Z,53.79
2018-12-05T03:24:18.092Z,53.33
2018-12-05T03:26:44.059Z,53.19
2018-12-05T03:29:10.029Z,53.68
2018-12-05T03:31:35.975Z,54.25
2018-12-05T03:34:01.939Z,53.71
2018-12-05T03:36:27.981Z,53.48
2018-12-05T03:38:54.052Z,53.41
2018-12-05T03:41:19.990Z,53.99
2018-12-05T03:43:45.981Z,53.65
2018-12-05T03:46:11.956Z,54.27
2018-12-05T03:48:37.912Z,54.16
2018-12-05T03:51:03.890Z,53.49
2018-12-05T03:53:29.855Z,53.24
2018-12-05T03:55:55.808Z,53.83
2018-12-05T03:58:21.877Z,54.09
2018-12-05T04:00:47.842Z,53.91
2018-12-05T04:03:13.820Z,53.98
2018-12-05T04:05:39.958Z,54.01
2018-12-05T04:08:05.913Z,54.01
2018-12-05T04:10:31.865Z,53.81
2018-12-05T04:12:57.843Z,53.65
2018-12-05T04:15:23.790Z,53.68
2018-12-05T04:17:49.746Z,53.77
2018-12-05T04:20:15.814Z,53.68
2018-12-05T04:22:41.778Z,54.17
2018-12-05T04:25:07.770Z,53.69
2018-12-05T04:27:33.842Z,53.32
2018-12-05T04:30:00.872Z,53.96
2018-12-05T04:32:26.932Z,53.89
2018-12-05T04:34:52.881Z,53.31
2018-12-05T04:37:18.947Z,54.09
2018-12-05T04:39:44.902Z,54.32
2018-12-05T04:42:10.860Z,53.21
2018-12-05T04:44:36.834Z,53.30
2018-12-05T04:47:02.873Z,54.37
2018-12-05T04:49:28.895Z,53.72
2018-12-05T04:51:54.855Z,53.64
2018-12-05T04:54:20.852Z,53.25
2018-12-05T04:56:46.898Z,53.72
2018-12-05T04:59:12.946Z,53.34
2018-12-05T05:01:38.907Z,53.88
2018-12-05T05:04:04.850Z,54.18
2018-12-05T05:06:30.896Z,53.66
2018-12-05T05:08:56.843Z,53.68
2018-12-05T05:11:22.800Z,53.14
2018-12-05T05:13:48.786Z,53.66
2018-12-05T05:16:14.857Z,53.15
2018-12-05T05:18:41.042Z,53.95
2018-12-05T05:21:07.058Z,53.32
2018-12-05T05:23:33.018Z,53.94
2018-12-05T05:25:58.965Z,53.02
2018-12-05T05:28:24.923Z,53.28
2018-12-05T05:30:50.970Z,54.03
2018-12-05T05:33:16.917Z,53.13
2018-12-05T05:35:42.870Z,53.91
2018-12-05T05:38:08.830Z,53.57
2018-12-05T05:40:34.786Z,53.55
2018-12-05T05:43:00.785Z,53.79
2018-12-05T05:45:26.735Z,53.29
2018-12-05T05:47:52.683Z,52.99
2018-12-05T05:50:18.699Z,53.29
2018-12-05T05:52:44.655Z,53.64
2018-12-05T05:55:10.629Z,53.45
2018-12-05T05:57:36.651Z,53.74
2018-12-05T06:00:02.609Z,53.09
2018-12-05T06:02:28.626Z,52.91
2018-12-05T06:04:54.585Z,53.86
2018-12-05T06:07:20.528Z,53.63
2018-12-05T06:09:46.511Z,52.84
2018-12-05T06:12:12.542Z,52.91
2018-12-05T06:14:38.558Z,53.54
2018-12-05T06:17:04.607Z,53.81
2018-12-05T06:19:30.567Z,52.92
2018-12-05T06:21:56.517Z,53.61
2018-12-05T06:24:22.502Z,52.96
2018-12-05T06:26:48.449Z,53.95
2018-12-05T06:29:14.412Z,52.72
2018-12-05T06:31:40.375Z,52.89
2018-12-05T06:34:06.343Z,53.74
2018-12-05T06:36:32.323Z,53.41
2018-12-05T06:38:59.471Z,53.70
2018-12-05T06:41:25.538Z,53.68
2018-12-05T06:43:51.519Z,53.75
2018-12-05T06:46:17.471Z,53.39
2018-12-05T06:48:43.454Z,53.38
2018-12-05T06:51:09.455Z,52.56
2018-12-05T06:53:35.681Z,53.61
2018-12-05T06:56:01.771Z,53.73
2018-12-05T06:58:27.725Z,53.78
2018-12-05T07:00:53.716Z,53.17
2018-12-05T07:03:19.653Z,52.66
2018-12-05T07:05:45.642Z,53.40
2018-12-05T07:08:11.599Z,53.58
2018-12-05T07:10:37.605Z,52.87
2018-12-05T07:13:04.958Z,52.85
2018-12-05T07:15:31.023Z,53.89
2018-12-05T07:17:56.965Z,53.16
2018-12-05T07:20:22.927Z,53.77
2018-12-05T07:22:48.935Z,52.99
2018-12-05T07:25:15.966Z,53.54
2018-12-05T07:27:42.010Z,53.06
2018-12-05T07:30:07.965Z,53.32
2018-12-05T07:32:33.934Z,53.13
2018-12-05T07:34:59.903Z,53.07
2018-12-05T07:37:25.858Z,53.48
2018-12-05T07:39:51.815Z,53.34
2018-12-05T07:42:17.827Z,53.82
2018-12-05T07:44:43.799Z,53.30
2018-12-05T07:47:09.754Z,53.68
2018-12-05T07:49:35.715Z,53.05
2018-12-05T07:52:01.668Z,53.67
2018-12-05T07:54:27.625Z,53.34
2018-12-05T07:56:54.481Z,53.81
2018-12-05T07:59:20.491Z,52.75
2018-12-05T08:01:46.434Z,53.73
2018-12-05T08:04:12.398Z,53.52
2018-12-05T08:06:38.352Z,53.05
2018-12-05T08:09:04.314Z,53.35
2018-12-05T08:11:30.271Z,54.07
2018-12-05T08:13:56.216Z,54.03
2018-12-05T08:16:22.288Z,54.53
2018-12-05T08:18:48.239Z,53.86
2018-12-05T08:21:14.227Z,53.84
2018-12-05T08:23:40.199Z,53.66
2018-12-05T08:26:06.174Z,54.56
2018-12-05T08:28:32.174Z,54.03
2018-12-05T08:30:58.122Z,54.06
2018-12-05T08:33:24.098Z,53.96
2018-12-05T08:35:50.050Z,53.33
2018-12-05T08:38:16.016Z,53.16
2018-12-05T08:40:41.989Z,53.69
2018-12-05T08:43:07.950Z,53.81
2018-12-05T08:45:33.933Z,53.72
2018-12-05T08:48:00.058Z,54.15
2018-12-05T08:50:26.040Z,53.25
2018-12-05T08:52:52.014Z,53.03
2018-12-05T08:55:17.987Z,51.62
2018-12-05T08:57:43.971Z,50.15
2018-12-05T09:00:09.903Z,51.07
2018-12-05T09:02:35.880Z,51.60
2018-12-05T09:05:01.935Z,51.78
2018-12-05T09:07:27.919Z,52.29
2018-12-05T09:09:53.902Z,52.82
2018-12-05T09:12:20.051Z,52.66
2018-12-05T09:14:46.009Z,52.62
2018-12-05T09:17:11.974Z,53.38
2018-12-05T09:19:37.930Z,52.70
2018-12-05T09:22:03.881Z,52.68
2018-12-05T09:24:29.865Z,52.56
2018-12-05T09:26:55.843Z,53.05
2018-12-05T09:29:21.800Z,52.83
2018-12-05T09:31:47.782Z,53.24
2018-12-05T09:34:13.740Z,52.90
2018-12-05T09:36:39.733Z,53.10
2018-12-05T09:39:05.683Z,52.60
2018-12-05T09:41:31.705Z,53.06
2018-12-05T09:43:57.672Z,53.11
2018-12-05T09:46:23.717Z,52.91
2018-12-05T09:48:49.678Z,52.80
2018-12-05T09:51:15.658Z,52.90
2018-12-05T09:53:41.618Z,52.28
2018-12-05T09:56:07.574Z,53.31
2018-12-05T09:58:33.565Z,53.03
2018-12-05T10:00:59.530Z,53.47
2018-12-05T10:03:25.487Z,52.47
2018-12-05T10:05:51.452Z,53.36
2018-12-05T10:08:17.464Z,52.70
2018-12-05T10:10:43.476Z,52.49
2018-12-05T10:13:09.429Z,52.64
2018-12-05T10:15:35.386Z,53.37
2018-12-05T10:18:01.371Z,53.30
2018-12-05T10:20:27.328Z,52.43
2018-12-05T10:22:53.315Z,52.73
2018-12-05T10:25:19.266Z,52.94
2018-12-05T10:27:46.330Z,52.90
2018-12-05T10:30:12.283Z,52.92
2018-12-05T10:32:38.238Z,52.72
2018-12-05T10:35:04.212Z,52.76
2018-12-05T10:37:30.167Z,53.34
2018-12-05T10:39:56.129Z,53.07
2018-12-05T10:42:22.073Z,52.73
2018-12-05T10:44:48.038Z,52.75
2018-12-05T10:47:13.999Z,52.99
2018-12-05T10:49:39.972Z,52.96
2018-12-05T10:52:05.952Z,53.55
2018-12-05T10:54:31.899Z,53.12
2018-12-05T10:56:57.890Z,53.38
2018-12-05T10:59:23.842Z,53.09
2018-12-05T11:01:49.797Z,52.62
2018-12-05T11:04:15.752Z,52.98
2018-12-05T11:06:41.704Z,52.67
2018-12-05T11:09:07.667Z,52.82
2018-12-05T11:11:33.625Z,52.61
2018-12-05T11:13:59.579Z,52.76
2018-12-05T11:16:25.546Z,53.11
2018-12-05T11:18:51.512Z,53.22
2018-12-05T11:21:17.470Z,52.22
2018-12-05T11:23:43.450Z,52.79
2018-12-05T11:26:09.405Z,53.26
2018-12-05T11:28:35.369Z,52.16
2018-12-05T11:31:01.322Z,52.88
2018-12-05T11:33:27.285Z,53.56
2018-12-05T11:35:53.248Z,52.55
2018-12-05T11:38:19.221Z,53.20
2018-12-05T11:40:45.335Z,53.43
2018-12-05T11:43:11.311Z,52.54
2018-12-05T11:45:37.258Z,52.17
2018-12-05T11:48:03.259Z,53.08
2018-12-05T11:50:29.201Z,52.32
2018-12-05T11:52:55.169Z,52.65
2018-12-05T11:55:21.137Z,52.65
2018-12-05T11:57:47.105Z,52.05
2018-12-05T12:00:13.082Z,53.06
2018-12-05T12:02:39.100Z,52.72
2018-12-05T12:05:05.081Z,52.18
2018-12-05T12:07:31.050Z,52.08
2018-12-05T12:09:57.008Z,52.82
2018-12-05T12:12:22.954Z,52.77
2018-12-05T12:14:48.925Z,53.02
2018-12-05T12:17:14.975Z,53.28
2018-12-05T12:19:40.928Z,52.73
2018-12-05T12:22:06.878Z,52.25
2018-12-05T12:24:34.962Z,52.13
2018-12-05T12:27:00.831Z,52.42
2018-12-05T12:29:26.827Z,53.50
2018-12-05T12:31:52.766Z,52.90
2018-12-05T12:34:18.735Z,53.19
2018-12-05T12:36:44.707Z,52.98
2018-12-05T12:39:10.782Z,52.68
2018-12-05T12:41:36.746Z,53.08
2018-12-05T12:44:02.727Z,53.14
2018-12-05T12:46:28.673Z,52.68
2018-12-05T12:48:54.642Z,53.06
2018-12-05T12:51:20.624Z,53.06
2018-12-05T12:53:46.644Z,53.32
2018-12-05T12:56:12.659Z,53.06
2018-12-05T12:58:38.686Z,53.29
2018-12-05T13:01:04.719Z,53.42
2018-12-05T13:03:30.747Z,53.19
2018-12-05T13:05:56.725Z,53.38
2018-12-05T13:08:22.670Z,52.63
2018-12-05T13:10:48.666Z,52.77
2018-12-05T13:13:14.641Z,52.87
2018-12-05T13:15:40.686Z,53.08
2018-12-05T13:18:06.633Z,53.04
2018-12-05T13:20:32.592Z,53.03
2018-12-05T13:22:58.565Z,53.00
2018-12-05T13:25:24.542Z,52.58
2018-12-05T13:27:50.518Z,52.34
2018-12-05T13:30:16.491Z,52.22
2018-12-05T13:32:42.437Z,53.07
2018-12-05T13:35:08.410Z,53.02
2018-12-05T13:37:34.375Z,53.15
2018-12-05T13:40:00.330Z,52.71
2018-12-05T13:42:26.307Z,52.44
2018-12-05T13:44:52.271Z,53.09
2018-12-05T13:47:18.229Z,53.73
2018-12-05T13:49:44.208Z,52.92
2018-12-05T13:52:10.316Z,53.27
2018-12-05T13:54:36.303Z,53.18
2018-12-05T13:57:02.281Z,53.09
2018-12-05T13:59:28.287Z,52.61
2018-12-05T14:01:54.251Z,52.72
2018-12-05T14:04:20.217Z,52.53
2018-12-05T14:06:46.165Z,52.98
2018-12-05T14:09:12.119Z,52.70
2018-12-05T14:11:38.078Z,53.11
2018-12-05T14:14:04.114Z,53.45
2018-12-05T14:16:30.078Z,52.75
2018-12-05T14:18:56.060Z,52.91
2018-12-05T14:21:22.014Z,52.89
2018-12-05T14:23:47.966Z,52.98
2018-12-05T14:26:13.919Z,52.69
2018-12-05T14:28:39.902Z,52.67
2018-12-05T14:31:05.858Z,53.47
2018-12-05T14:33:31.821Z,52.48
2018-12-05T14:35:57.790Z,53.41
2018-12-05T14:38:23.758Z,52.83
2018-12-05T14:40:49.759Z,53.59
2018-12-05T14:43:15.706Z,53.06
2018-12-05T14:45:41.669Z,53.33
2018-12-05T14:48:07.622Z,52.97
2018-12-05T14:50:33.711Z,53.19
2018-12-05T14:52:59.741Z,53.60
2018-12-05T14:55:25.694Z,52.55
2018-12-05T14:57:51.664Z,53.07
2018-12-05T15:00:17.627Z,52.97
2018-12-05T15:02:43.603Z,52.58
2018-12-05T15:05:09.565Z,53.02
2018-12-05T15:07:35.523Z,53.30
2018-12-05T15:10:01.498Z,52.71
2018-12-05T15:12:27.458Z,52.46
2018-12-05T15:14:53.451Z,52.84
2018-12-05T15:17:19.448Z,52.24
2018-12-05T15:19:45.398Z,52.34
2018-12-05T15:22:11.376Z,51.85
2018-12-05T15:24:37.334Z,53.13
2018-12-05T15:27:03.291Z,52.79
2018-12-05T15:29:29.266Z,53.12
2018-12-05T15:31:55.361Z,52.71
2018-12-05T15:34:21.309Z,52.75
2018-12-05T15:36:47.292Z,52.39
2018-12-05T15:39:13.254Z,53.08
2018-12-05T15:41:39.243Z,52.97
2018-12-05T15:44:05.182Z,54.02
2018-12-05T15:46:31.166Z,53.54
2018-12-05T15:48:57.150Z,53.15
2018-12-05T15:51:23.110Z,52.71
2018-12-05T15:53:49.057Z,53.02
2018-12-05T15:56:15.040Z,53.20
2018-12-05T15:58:41.015Z,52.72
2018-12-05T16:01:06.967Z,52.83
2018-12-05T16:03:32.952Z,52.95
2018-12-05T16:05:58.893Z,53.24
2018-12-05T16:08:24.888Z,53.43
2018-12-05T16:10:50.842Z,53.29
2018-12-05T16:13:16.793Z,53.50
2018-12-05T16:15:42.751Z,52.68
2018-12-05T16:18:08.706Z,53.37
2018-12-05T16:20:34.674Z,53.19
2018-12-05T16:23:00.621Z,52.96
2018-12-05T16:25:26.589Z,52.79
2018-12-05T16:27:52.554Z,52.23
2018-12-05T16:30:18.626Z,52.21
2018-12-05T16:32:44.652Z,51.82
2018-12-05T16:35:10.851Z,52.46
2018-12-05T16:37:36.827Z,52.10
2018-12-05T16:40:02.797Z,52.18
2018-12-05T16:42:28.767Z,52.42
2018-12-05T16:44:54.760Z,52.87
2018-12-05T16:47:20.730Z,52.44
2018-12-05T16:49:46.747Z,52.74
2018-12-05T16:52:12.800Z,52.90
2018-12-05T16:54:38.757Z,52.85
2018-12-05T16:57:04.743Z,53.27
2018-12-05T16:59:30.710Z,53.51
2018-12-05T17:01:56.673Z,52.36
2018-12-05T17:04:22.672Z,53.26
2018-12-05T17:06:48.865Z,53.13
2018-12-05T17:09:14.872Z,52.68
2018-12-05T17:11:40.958Z,52.31
2018-12-05T17:14:06.999Z,52.68
2018-12-05T17:16:32.940Z,53.57
2018-12-05T17:18:59.017Z,52.36
2018-12-05T17:21:24.994Z,53.09
2018-12-05T17:23:50.959Z,53.05
2018-12-05T17:26:16.938Z,52.75
2018-12-05T17:28:42.916Z,52.27
2018-12-05T17:31:08.911Z,52.64
2018-12-05T17:33:34.986Z,52.33
2018-12-05T17:36:00.955Z,52.06
2018-12-05T17:38:26.994Z,53.51
2018-12-05T17:40:52.970Z,52.33
2018-12-05T17:43:18.994Z,52.96
2018-12-05T17:45:45.051Z,52.17
2018-12-05T17:48:11.054Z,53.12
2018-12-05T17:50:37.023Z,53.19
2018-12-05T17:53:03.008Z,52.83
2018-12-05T17:55:28.958Z,51.99
2018-12-05T17:57:54.946Z,52.90
2018-12-05T18:00:20.890Z,53.40
2018-12-05T18:02:46.871Z,52.84
2018-12-05T18:05:12.817Z,53.22
2018-12-05T18:07:38.793Z,53.07
2018-12-05T18:10:04.751Z,52.62
2018-12-05T18:12:30.710Z,52.06
2018-12-05T18:14:56.695Z,52.50
2018-12-05T18:17:22.662Z,52.18
2018-12-05T18:19:48.615Z,51.53
2018-12-05T18:22:14.656Z,50.68
2018-12-05T18:24:40.649Z,51.51
2018-12-05T18:27:06.619Z,52.00
2018-12-05T18:29:32.715Z,51.93
2018-12-05T18:31:58.675Z,51.61
2018-12-05T18:34:24.670Z,52.01
2018-12-05T18:36:50.655Z,52.84
2018-12-05T18:39:16.682Z,52.30
2018-12-05T18:41:42.633Z,52.45
2018-12-05T18:44:08.616Z,52.35
2018-12-05T18:46:34.600Z,52.15
2018-12-05T18:49:00.555Z,52.34
2018-12-05T18:51:26.542Z,52.56
2018-12-05T18:53:52.514Z,52.89
2018-12-05T18:56:18.475Z,52.69
2018-12-05T18:58:44.425Z,52.02
2018-12-05T19:01:10.526Z,52.97
2018-12-05T19:03:36.513Z,51.86
2018-12-05T19:06:02.478Z,52.26
2018-12-05T19:08:34.327Z,52.15
2018-12-05T19:10:56.447Z,52.67
2018-12-05T19:13:22.406Z,52.34
2018-12-05T19:15:48.399Z,51.75
2018-12-05T19:18:14.861Z,53.11
2018-12-05T19:20:40.867Z,52.06
2018-12-05T19:23:06.902Z,53.24
2018-12-05T19:25:32.871Z,52.03
2018-12-05T19:27:58.835Z,52.29
2018-12-05T19:30:24.799Z,52.68
2018-12-05T19:32:50.810Z,53.28
2018-12-05T19:35:16.756Z,53.22
2018-12-05T19:37:42.717Z,53.28
2018-12-05T19:40:08.675Z,51.99
2018-12-05T19:42:34.721Z,53.20
2018-12-05T19:45:00.758Z,52.88
2018-12-05T19:47:26.779Z,52.84
2018-12-05T19:49:52.778Z,52.39
2018-12-05T19:52:18.788Z,52.05
2018-12-05T19:54:44.753Z,52.49
2018-12-05T19:57:10.717Z,52.66
2018-12-05T19:59:36.726Z,52.96
2018-12-05T20:02:02.682Z,53.00
2018-12-05T20:04:28.690Z,52.65
2018-12-05T20:06:54.638Z,52.61
2018-12-05T20:09:20.634Z,53.04
2018-12-05T20:11:46.617Z,53.38
2018-12-05T20:14:12.641Z,52.27
2018-12-05T20:16:38.617Z,52.87
2018-12-05T20:19:04.590Z,52.21
2018-12-05T20:21:30.571Z,53.36
2018-12-05T20:23:56.553Z,53.06
2018-12-05T20:26:22.503Z,53.40
2018-12-05T20:28:48.568Z,53.34
2018-12-05T20:31:14.523Z,52.53
2018-12-05T20:33:40.521Z,52.15
2018-12-05T20:36:06.499Z,52.17
2018-12-05T20:38:32.473Z,52.69
2018-12-05T20:40:58.454Z,53.07
2018-12-05T20:43:24.435Z,52.60
2018-12-05T20:45:50.422Z,52.12
2018-12-05T20:48:16.380Z,52.24
2018-12-05T20:50:42.374Z,52.54
2018-12-05T20:53:08.394Z,52.64
2018-12-05T20:55:34.399Z,53.57
2018-12-05T20:58:00.362Z,53.14
2018-12-05T21:00:26.436Z,52.84
2018-12-05T21:02:52.458Z,52.31
2018-12-05T21:05:18.423Z,53.29
2018-12-05T21:07:44.391Z,53.34
2018-12-05T21:10:10.376Z,53.32
2018-12-05T21:12:37.387Z,52.50
2018-12-05T21:15:03.341Z,52.99
2018-12-05T21:17:29.335Z,53.57
2018-12-05T21:19:55.306Z,52.24
2018-12-05T21:22:21.301Z,52.29
2018-12-05T21:24:47.263Z,53.49
2018-12-05T21:27:46.576Z,52.67
2018-12-05T21:30:12.572Z,52.50
2018-12-05T21:32:38.527Z,53.00
2018-12-05T21:35:04.517Z,53.12
2018-12-05T21:37:30.474Z,53.19
2018-12-05T21:39:57.188Z,52.86
2018-12-05T21:42:23.181Z,53.29
2018-12-05T21:44:49.143Z,53.22
2018-12-05T21:47:15.112Z,52.45
2018-12-05T21:49:41.061Z,52.61
2018-12-05T21:52:07.106Z,52.90
2018-12-05T21:54:33.075Z,52.69
2018-12-05T21:56:59.055Z,53.37
2018-12-05T21:59:25.026Z,52.22
2018-12-05T22:01:51.030Z,53.09
2018-12-05T22:04:16.974Z,52.62
2018-12-05T22:06:42.930Z,52.73
2018-12-05T22:09:08.894Z,52.34
2018-12-05T22:11:34.874Z,52.32
2018-12-05T22:14:00.838Z,53.30
2018-12-05T22:16:27.001Z,52.74
2018-12-05T22:18:52.994Z,52.92
2018-12-05T22:21:18.951Z,52.42
2018-12-05T22:23:44.923Z,52.85
2018-12-05T22:26:10.902Z,52.70
2018-12-05T22:28:36.868Z,52.88
2018-12-05T22:31:02.814Z,52.93
2018-12-05T22:33:28.775Z,53.31
2018-12-05T22:35:54.763Z,53.02
2018-12-05T22:38:20.751Z,52.39
2018-12-05T22:40:46.786Z,52.97
2018-12-05T22:43:12.798Z,52.79
2018-12-05T22:45:38.763Z,52.64
2018-12-05T22:48:04.942Z,53.39
2018-12-05T22:50:30.916Z,52.88
2018-12-05T22:52:56.913Z,53.54
2018-12-05T22:55:22.862Z,52.83
2018-12-05T22:57:49.030Z,52.98
2018-12-05T23:00:15.001Z,52.61
2018-12-05T23:02:41.059Z,53.16
2018-12-05T23:05:07.008Z,52.97
2018-12-05T23:07:33.089Z,53.50
2018-12-05T23:09:59.071Z,53.30
2018-12-05T23:12:25.046Z,52.63
2018-12-05T23:14:51.025Z,52.37
2018-12-05T23:17:16.972Z,53.15
2018-12-05T23:19:42.950Z,53.04
2018-12-05T23:22:08.985Z,52.71
2018-12-05T23:24:34.978Z,52.55
2018-12-05T23:27:00.946Z,53.02
2018-12-05T23:29:27.040Z,53.33
2018-12-05T23:31:52.999Z,53.14
2018-12-05T23:34:18.958Z,52.40
2018-12-05T23:36:44.911Z,52.99
2018-12-05T23:39:10.865Z,52.44
2018-12-05T23:41:36.952Z,52.50
2018-12-05T23:44:03.027Z,53.23
2018-12-05T23:46:29.324Z,52.84
2018-12-05T23:48:55.297Z,52.67
2018-12-05T23:51:21.281Z,52.77
2018-12-05T23:53:47.239Z,52.86
2018-12-05T23:56:13.214Z,53.46
2018-12-05T23:58:39.163Z,52.86
